createdAt,value
2022-10-19T00:00:22.942Z,48.26
2022-10-19T00:02:49.149Z,48.31
2022-10-19T00:05:15.439Z,48.22
2022-10-19T00:07:41.702Z,48.18
2022-10-19T00:10:08.072Z,48.28
2022-10-19T00:12:34.607Z,48.14
2022-10-19T00:15:01.037Z,48.01
2022-10-19T00:17:27.558Z,48.23
2022-10-19T00:19:53.844Z,48.24
2022-10-19T00:22:20.482Z,48.13
2022-10-19T00:24:46.952Z,48.22
2022-10-19T00:27:13.308Z,48.00
2022-10-19T00:29:39.682Z,48.12
2022-10-19T00:32:05.977Z,48.09
2022-10-19T00:34:32.426Z,48.24
2022-10-19T00:36:58.843Z,47.96
2022-10-19T00:39:25.277Z,48.25
2022-10-19T00:41:51.707Z,48.21
2022-10-19T00:44:17.980Z,48.13
2022-10-19T00:46:45.760Z,48.02
2022-10-19T00:49:12.065Z,48.12
2022-10-19T00:51:43.950Z,48.08
2022-10-19T00:54:10.715Z,48.14
2022-10-19T00:56:38.903Z,48.32
2022-10-19T00:59:05.961Z,48.20
2022-10-19T01:01:32.833Z,48.00
2022-10-19T01:03:59.558Z,48.21
2022-10-19T01:06:26.655Z,47.92
2022-10-19T01:08:53.107Z,48.19
2022-10-19T01:11:40.888Z,48.17
2022-10-19T01:14:22.230Z,48.34
2022-10-19T01:17:00.744Z,48.49
2022-10-19T01:19:36.665Z,48.02
2022-10-19T01:22:15.076Z,48.54
2022-10-19T01:24:50.730Z,48.35
2022-10-19T01:27:23.073Z,48.32
2022-10-19T01:29:49.324Z,48.52
2022-10-19T01:32:36.170Z,48.29
2022-10-19T01:35:28.668Z,48.05
2022-10-19T01:38:15.933Z,48.27
2022-10-19T01:40:47.168Z,48.42
2022-10-19T01:43:20.163Z,48.37
2022-10-19T01:45:50.325Z,48.43
2022-10-19T01:48:23.002Z,48.00
2022-10-19T01:50:53.901Z,48.08
2022-10-19T01:53:20.881Z,48.21
2022-10-19T01:55:50.188Z,48.25
2022-10-19T01:58:17.959Z,48.33
2022-10-19T02:00:46.395Z,48.01
2022-10-19T02:03:13.289Z,48.42
2022-10-19T02:05:40.693Z,48.49
2022-10-19T02:08:11.047Z,48.13
2022-10-19T02:10:38.278Z,47.84
2022-10-19T02:13:05.134Z,48.30
2022-10-19T02:15:33.440Z,48.50
2022-10-19T02:18:00.789Z,48.29
2022-10-19T02:20:28.085Z,48.49
2022-10-19T02:22:54.576Z,48.67
2022-10-19T02:25:21.335Z,48.64
2022-10-19T02:27:48.249Z,48.78
2022-10-19T02:30:15.742Z,48.83
2022-10-19T02:32:42.746Z,48.71
2022-10-19T02:35:09.877Z,48.72
2022-10-19T02:40:07.835Z,48.73
2022-10-19T02:42:36.377Z,48.75
2022-10-19T02:45:09.471Z,48.60
2022-10-19T02:47:38.667Z,48.19
2022-10-19T02:50:05.787Z,48.75
2022-10-19T02:52:32.067Z,48.38
2022-10-19T02:54:59.379Z,48.64
2022-10-19T02:57:26.829Z,48.61
2022-10-19T02:59:53.281Z,48.67
2022-10-19T03:02:20.296Z,48.62
2022-10-19T03:07:19.504Z,48.42
2022-10-19T03:09:45.984Z,48.75
2022-10-19T03:12:12.868Z,48.63
2022-10-19T03:14:39.547Z,48.66
2022-10-19T03:17:05.970Z,48.67
2022-10-19T03:19:32.765Z,48.71
2022-10-19T03:21:59.041Z,48.30
2022-10-19T03:24:25.302Z,48.59
2022-10-19T03:26:51.675Z,48.50
2022-10-19T03:29:17.990Z,48.51
2022-10-19T03:31:44.220Z,48.50
2022-10-19T03:34:10.636Z,48.19
2022-10-19T03:36:39.318Z,48.51
2022-10-19T03:39:07.937Z,48.51
2022-10-19T03:41:35.876Z,48.71
2022-10-19T03:44:02.243Z,48.37
2022-10-19T03:46:28.752Z,48.84
2022-10-19T03:48:55.216Z,48.71
2022-10-19T03:51:25.863Z,48.88
2022-10-19T03:53:57.638Z,48.86
2022-10-19T03:56:24.990Z,48.31
2022-10-19T03:58:51.738Z,48.69
2022-10-19T04:01:22.668Z,48.55
2022-10-19T04:03:52.877Z,48.94
2022-10-19T04:06:22.061Z,48.97
2022-10-19T04:08:49.016Z,48.72
2022-10-19T04:11:15.559Z,48.69
2022-10-19T04:13:42.067Z,49.13
2022-10-19T04:16:09.657Z,49.17
2022-10-19T04:18:35.952Z,48.74
2022-10-19T04:21:03.391Z,48.69
2022-10-19T04:23:30.917Z,48.58
2022-10-19T04:26:01.128Z,48.77
2022-10-19T04:28:27.528Z,48.72
2022-10-19T04:30:53.931Z,48.42
2022-10-19T04:33:20.215Z,48.38
2022-10-19T04:35:46.531Z,48.84
2022-10-19T04:38:12.870Z,48.72
2022-10-19T04:40:39.156Z,48.69
2022-10-19T04:43:05.806Z,48.57
2022-10-19T04:45:35.067Z,48.65
2022-10-19T04:48:02.189Z,48.45
2022-10-19T04:50:28.502Z,48.39
2022-10-19T04:52:54.962Z,48.47
2022-10-19T04:55:21.435Z,48.55
2022-10-19T04:57:47.767Z,48.13
2022-10-19T05:00:14.706Z,48.76
2022-10-19T05:02:47.821Z,48.94
2022-10-19T05:05:14.501Z,48.86
2022-10-19T05:07:41.057Z,48.49
2022-10-19T05:10:08.198Z,48.16
2022-10-19T05:12:34.907Z,48.33
2022-10-19T05:15:01.229Z,48.83
2022-10-19T05:17:29.803Z,48.25
2022-10-19T05:19:56.112Z,48.75
2022-10-19T05:22:22.327Z,48.39
2022-10-19T05:24:48.547Z,48.55
2022-10-19T05:27:15.146Z,48.42
2022-10-19T05:29:41.444Z,48.47
2022-10-19T05:32:07.723Z,48.24
2022-10-19T05:34:33.999Z,48.93
2022-10-19T05:37:00.957Z,48.74
2022-10-19T05:39:27.395Z,48.81
2022-10-19T05:41:53.606Z,48.48
2022-10-19T05:44:20.733Z,48.62
2022-10-19T05:46:47.364Z,49.13
2022-10-19T05:49:14.625Z,48.64
2022-10-19T05:51:40.928Z,48.43
2022-10-19T05:54:08.260Z,48.66
2022-10-19T05:56:34.711Z,48.62
2022-10-19T05:59:04.059Z,48.99
2022-10-19T06:01:31.024Z,48.50
2022-10-19T06:03:58.084Z,48.80
2022-10-19T06:06:25.144Z,48.61
2022-10-19T06:08:52.819Z,48.39
2022-10-19T06:11:25.623Z,48.94
2022-10-19T06:13:54.758Z,48.58
2022-10-19T06:16:22.787Z,48.85
2022-10-19T06:18:49.126Z,48.76
2022-10-19T06:21:19.628Z,48.83
2022-10-19T06:23:50.112Z,49.22
2022-10-19T06:26:16.440Z,48.93
2022-10-19T06:28:43.606Z,49.26
2022-10-19T06:31:10.630Z,49.53
2022-10-19T06:33:37.322Z,49.60
2022-10-19T06:36:06.573Z,48.85
2022-10-19T06:38:32.854Z,48.92
2022-10-19T06:40:59.427Z,49.18
2022-10-19T06:43:25.835Z,49.38
2022-10-19T06:45:52.294Z,49.43
2022-10-19T06:48:18.543Z,49.13
2022-10-19T06:50:44.863Z,48.82
2022-10-19T06:53:11.623Z,48.97
2022-10-19T06:55:38.169Z,48.87
2022-10-19T06:58:04.598Z,49.57
2022-10-19T07:00:31.399Z,49.14
2022-10-19T07:03:00.989Z,49.31
2022-10-19T07:05:27.498Z,49.77
2022-10-19T07:07:53.807Z,49.48
2022-10-19T07:10:20.365Z,49.44
2022-10-19T07:12:46.653Z,49.27
2022-10-19T07:15:13.113Z,49.50
2022-10-19T07:17:39.398Z,49.61
2022-10-19T07:20:05.967Z,49.12
2022-10-19T07:22:32.281Z,49.15
2022-10-19T07:24:58.973Z,49.11
2022-10-19T07:27:25.241Z,49.37
2022-10-19T07:29:51.477Z,49.18
2022-10-19T07:32:17.707Z,48.80
2022-10-19T07:34:44.135Z,49.07
2022-10-19T07:37:10.409Z,48.95
2022-10-19T07:39:36.716Z,48.65
2022-10-19T07:42:03.193Z,48.86
2022-10-19T07:44:32.074Z,49.31
2022-10-19T07:46:58.454Z,49.10
2022-10-19T07:49:24.917Z,49.16
2022-10-19T07:51:54.279Z,49.12
2022-10-19T07:54:21.389Z,49.47
2022-10-19T07:56:47.836Z,49.30
2022-10-19T07:59:16.191Z,49.34
2022-10-19T08:01:43.965Z,49.54
2022-10-19T08:06:56.643Z,49.30
2022-10-19T08:09:47.753Z,49.58
2022-10-19T08:12:14.632Z,49.71
2022-10-19T08:14:41.594Z,49.29
2022-10-19T08:17:11.430Z,49.36
2022-10-19T08:19:41.348Z,49.32
2022-10-19T08:22:09.135Z,49.67
2022-10-19T08:24:38.001Z,49.65
2022-10-19T08:27:04.282Z,49.59
2022-10-19T08:29:31.604Z,49.70
2022-10-19T08:31:59.760Z,49.70
2022-10-19T08:34:26.189Z,49.67
2022-10-19T08:36:52.413Z,49.89
2022-10-19T08:39:18.835Z,49.78
2022-10-19T08:42:03.663Z,49.61
2022-10-19T08:44:42.227Z,49.91
2022-10-19T08:47:14.117Z,49.69
2022-10-19T08:49:41.232Z,50.13
2022-10-19T08:52:12.700Z,50.07
2022-10-19T08:54:59.484Z,49.80
2022-10-19T08:57:40.642Z,49.68
2022-10-19T09:00:26.378Z,49.57
2022-10-19T09:03:13.035Z,50.09
2022-10-19T09:05:39.345Z,49.76
2022-10-19T09:08:08.026Z,49.94
2022-10-19T09:10:35.702Z,49.75
2022-10-19T09:13:05.302Z,49.51
2022-10-19T09:15:34.404Z,49.76
2022-10-19T09:18:01.388Z,49.47
2022-10-19T09:20:36.877Z,49.43
2022-10-19T09:23:13.206Z,49.39
2022-10-19T09:25:41.518Z,49.27
2022-10-19T09:28:31.566Z,49.51
2022-10-19T09:31:05.907Z,49.25
2022-10-19T09:33:35.504Z,49.37
2022-10-19T09:36:03.231Z,49.24
2022-10-19T09:38:31.588Z,48.98
2022-10-19T09:40:58.951Z,49.05
2022-10-19T09:43:27.130Z,49.19
2022-10-19T09:46:02.433Z,48.76
2022-10-19T09:48:32.013Z,48.77
2022-10-19T09:50:59.719Z,47.79
2022-10-19T09:53:26.787Z,47.80
2022-10-19T09:56:00.340Z,48.19
2022-10-19T09:58:32.100Z,48.34
2022-10-19T10:01:00.085Z,47.88
2022-10-19T10:03:26.547Z,48.04
2022-10-19T10:05:53.305Z,48.38
2022-10-19T10:08:24.769Z,48.39
2022-10-19T10:10:58.051Z,48.31
2022-10-19T10:13:25.593Z,47.99
2022-10-19T10:15:56.199Z,45.52
2022-10-19T10:18:23.910Z,47.79
2022-10-19T10:21:01.400Z,48.05
2022-10-19T10:23:30.981Z,47.65
2022-10-19T10:25:58.544Z,47.54
2022-10-19T10:28:26.583Z,47.22
2022-10-19T10:30:54.694Z,47.63
2022-10-19T10:33:40.346Z,47.75
2022-10-19T10:36:11.407Z,46.72
2022-10-19T10:38:46.363Z,47.51
2022-10-19T10:41:17.829Z,46.86
2022-10-19T10:44:13.320Z,46.96
2022-10-19T10:46:51.989Z,45.98
2022-10-19T10:49:23.062Z,45.50
2022-10-19T10:51:53.154Z,46.70
2022-10-19T10:54:27.102Z,46.52
2022-10-19T10:57:05.651Z,46.17
2022-10-19T10:59:36.862Z,46.11
2022-10-19T11:02:14.214Z,46.08
2022-10-19T11:04:47.436Z,44.02
2022-10-19T11:07:24.224Z,45.96
2022-10-19T11:09:56.827Z,46.40
2022-10-19T11:12:35.951Z,46.01
2022-10-19T11:15:20.928Z,45.36
2022-10-19T11:18:07.515Z,44.94
2022-10-19T11:20:35.823Z,45.49
2022-10-19T11:23:07.559Z,43.14
2022-10-19T11:25:45.723Z,44.11
2022-10-19T11:28:11.990Z,44.73
2022-10-19T11:30:50.548Z,44.73
2022-10-19T11:33:32.833Z,45.79
2022-10-19T11:36:03.793Z,45.96
2022-10-19T11:38:36.050Z,45.22
2022-10-19T11:41:17.248Z,45.13
2022-10-19T11:43:44.280Z,45.70
2022-10-19T11:46:10.687Z,43.31
2022-10-19T11:48:54.798Z,44.99
2022-10-19T11:51:22.155Z,44.88
2022-10-19T11:53:48.741Z,43.88
2022-10-19T11:56:19.807Z,45.18
2022-10-19T12:01:50.612Z,45.02
2022-10-19T12:04:16.900Z,44.64
2022-10-19T12:06:49.447Z,44.34
2022-10-19T12:09:22.589Z,44.47
2022-10-19T12:12:07.016Z,44.06
2022-10-19T12:14:37.041Z,44.53
2022-10-19T12:17:09.925Z,44.35
2022-10-19T12:19:42.455Z,44.78
2022-10-19T12:22:13.627Z,43.68
2022-10-19T12:24:40.083Z,44.78
2022-10-19T12:27:07.049Z,44.81
2022-10-19T12:29:35.836Z,44.21
2022-10-19T12:32:03.058Z,44.31
2022-10-19T12:34:47.155Z,42.16
2022-10-19T12:37:22.804Z,42.60
2022-10-19T12:40:08.679Z,42.70
2022-10-19T12:42:43.913Z,44.14
2022-10-19T12:45:25.199Z,44.79
2022-10-19T12:48:11.076Z,44.75
2022-10-19T12:50:49.629Z,44.13
2022-10-19T12:53:36.265Z,43.56
2022-10-19T12:56:02.613Z,44.44
2022-10-19T12:58:32.580Z,43.80
2022-10-19T13:00:59.743Z,43.94
2022-10-19T13:03:30.652Z,44.30
2022-10-19T13:06:02.084Z,43.97
2022-10-19T13:08:30.618Z,44.25
2022-10-19T13:11:03.702Z,43.84
2022-10-19T13:13:50.867Z,43.22
2022-10-19T13:16:29.663Z,43.43
2022-10-19T13:19:01.858Z,43.56
2022-10-19T13:21:47.274Z,43.99
2022-10-19T13:24:25.406Z,43.22
2022-10-19T13:27:10.582Z,43.58
2022-10-19T13:29:36.816Z,43.74
2022-10-19T13:32:22.015Z,42.84
2022-10-19T13:34:48.739Z,43.81
2022-10-19T13:37:17.310Z,43.53
2022-10-19T13:39:43.712Z,43.17
2022-10-19T13:42:23.883Z,43.05
2022-10-19T13:44:52.954Z,43.09
2022-10-19T13:47:39.802Z,41.63
2022-10-19T13:50:07.059Z,41.61
2022-10-19T13:52:52.252Z,42.85
2022-10-19T13:55:24.725Z,43.06
2022-10-19T13:58:14.318Z,43.39
2022-10-19T14:01:01.255Z,43.31
2022-10-19T14:03:46.247Z,43.32
2022-10-19T14:06:15.716Z,42.91
2022-10-19T14:09:01.186Z,42.58
2022-10-19T14:11:31.237Z,42.13
2022-10-19T14:14:13.014Z,41.95
2022-10-19T14:16:50.918Z,42.49
2022-10-19T14:19:28.852Z,42.76
2022-10-19T14:21:56.769Z,42.67
2022-10-19T14:24:31.926Z,41.11
2022-10-19T14:27:05.954Z,39.61
2022-10-19T14:29:35.512Z,40.65
2022-10-19T14:32:02.402Z,41.73
2022-10-19T14:34:28.697Z,41.97
2022-10-19T14:36:55.778Z,42.24
2022-10-19T14:39:24.144Z,42.71
2022-10-19T14:41:54.763Z,42.08
2022-10-19T14:44:34.722Z,42.68
2022-10-19T14:47:01.910Z,42.75
2022-10-19T14:49:28.514Z,42.77
2022-10-19T14:51:59.166Z,42.25
2022-10-19T14:54:36.378Z,41.76
2022-10-19T14:57:08.946Z,42.38
2022-10-19T14:59:37.604Z,42.69
2022-10-19T15:02:11.990Z,43.03
2022-10-19T15:04:39.191Z,42.72
2022-10-19T15:07:19.786Z,42.86
2022-10-19T15:09:54.448Z,42.47
2022-10-19T15:12:23.525Z,43.04
2022-10-19T15:14:49.796Z,41.27
2022-10-19T15:17:24.412Z,42.50
2022-10-19T15:19:51.296Z,42.98
2022-10-19T15:22:19.986Z,42.93
2022-10-19T15:24:55.763Z,42.88
2022-10-19T15:27:22.954Z,43.25
2022-10-19T15:30:00.282Z,43.17
2022-10-19T15:32:31.874Z,43.07
2022-10-19T15:34:58.671Z,43.15
2022-10-19T15:39:53.494Z,43.21
2022-10-19T15:42:40.756Z,43.29
2022-10-19T15:45:25.833Z,43.35
2022-10-19T15:48:10.911Z,43.07
2022-10-19T15:50:40.182Z,43.39
2022-10-19T15:53:07.866Z,43.45
2022-10-19T15:55:34.558Z,43.26
2022-10-19T15:58:01.156Z,43.33
2022-10-19T16:00:28.723Z,43.55
2022-10-19T16:02:54.999Z,43.36
2022-10-19T16:05:21.580Z,43.53
2022-10-19T16:07:47.850Z,43.40
2022-10-19T16:10:18.716Z,43.54
2022-10-19T16:12:45.071Z,43.26
2022-10-19T16:15:17.534Z,43.64
2022-10-19T16:17:47.789Z,43.24
2022-10-19T16:20:14.168Z,43.42
2022-10-19T16:22:40.622Z,43.39
2022-10-19T16:25:07.062Z,43.37
2022-10-19T16:27:33.989Z,43.28
2022-10-19T16:30:00.651Z,43.28
2022-10-19T16:32:27.290Z,43.64
2022-10-19T16:34:54.531Z,43.58
2022-10-19T16:37:20.772Z,43.74
2022-10-19T16:39:47.214Z,43.76
2022-10-19T16:42:14.941Z,43.56
2022-10-19T16:44:41.158Z,43.62
2022-10-19T16:47:07.757Z,43.74
2022-10-19T16:49:33.964Z,43.56
2022-10-19T16:52:01.709Z,43.55
2022-10-19T16:54:30.064Z,43.99
2022-10-19T16:56:56.322Z,43.58
2022-10-19T16:59:22.551Z,43.75
2022-10-19T17:01:48.858Z,43.77
2022-10-19T17:04:17.880Z,43.92
2022-10-19T17:06:46.985Z,43.78
2022-10-19T17:09:37.030Z,43.70
2022-10-19T17:12:00.007Z,43.74
2022-10-19T17:14:26.295Z,43.70
2022-10-19T17:16:52.574Z,44.12
2022-10-19T17:19:19.211Z,44.19
2022-10-19T17:21:45.594Z,44.18
2022-10-19T17:24:20.375Z,43.97
2022-10-19T17:26:48.042Z,44.24
2022-10-19T17:29:14.316Z,44.03
2022-10-19T17:31:41.642Z,44.26
2022-10-19T17:34:09.119Z,44.40
2022-10-19T17:39:17.426Z,44.53
2022-10-19T17:41:44.797Z,44.37
2022-10-19T17:44:11.290Z,44.60
2022-10-19T17:46:40.088Z,44.23
2022-10-19T17:49:06.405Z,44.38
2022-10-19T17:51:33.832Z,44.42
2022-10-19T17:54:01.946Z,44.62
2022-10-19T17:56:28.649Z,44.31
2022-10-19T17:58:55.892Z,44.44
2022-10-19T18:01:22.287Z,44.47
2022-10-19T18:03:48.909Z,44.65
2022-10-19T18:06:16.854Z,44.82
2022-10-19T18:08:44.854Z,44.73
2022-10-19T18:11:12.590Z,44.35
2022-10-19T18:13:39.548Z,44.32
2022-10-19T18:16:11.956Z,44.29
2022-10-19T18:18:38.946Z,44.61
2022-10-19T18:21:10.929Z,44.81
2022-10-19T18:23:37.792Z,44.53
2022-10-19T18:26:05.979Z,44.52
2022-10-19T18:28:32.468Z,44.52
2022-10-19T18:31:14.939Z,45.07
2022-10-19T18:33:41.279Z,44.64
2022-10-19T18:36:09.869Z,45.01
2022-10-19T18:38:36.254Z,44.67
2022-10-19T18:41:06.304Z,45.09
2022-10-19T18:43:34.095Z,44.50
2022-10-19T18:46:00.801Z,44.72
2022-10-19T18:48:28.096Z,44.70
2022-10-19T18:50:54.963Z,45.14
2022-10-19T18:53:22.479Z,45.20
2022-10-19T18:55:58.991Z,45.00
2022-10-19T18:58:26.364Z,44.99
2022-10-19T19:01:02.147Z,44.83
2022-10-19T19:03:28.362Z,45.10
2022-10-19T19:05:54.619Z,45.14
2022-10-19T19:08:20.885Z,45.15
2022-10-19T19:10:47.113Z,45.05
2022-10-19T19:13:13.734Z,45.44
2022-10-19T19:15:40.510Z,45.20
2022-10-19T19:18:06.836Z,45.30
2022-10-19T19:20:33.060Z,45.41
2022-10-19T19:22:59.327Z,44.99
2022-10-19T19:25:25.577Z,45.46
2022-10-19T19:27:52.870Z,45.59
2022-10-19T19:30:20.418Z,45.15
2022-10-19T19:32:46.888Z,45.42
2022-10-19T19:35:13.166Z,45.49
2022-10-19T19:37:39.416Z,45.04
2022-10-19T19:40:06.003Z,45.28
2022-10-19T19:42:32.253Z,45.37
2022-10-19T19:44:58.511Z,45.41
2022-10-19T19:47:26.076Z,45.51
2022-10-19T19:49:52.506Z,45.23
2022-10-19T19:52:18.752Z,45.38
2022-10-19T19:54:44.996Z,45.26
2022-10-19T19:57:11.443Z,45.51
2022-10-19T19:59:37.695Z,45.15
2022-10-19T20:02:04.163Z,45.73
2022-10-19T20:04:30.427Z,45.62
2022-10-19T20:06:56.716Z,45.39
2022-10-19T20:09:23.032Z,45.79
2022-10-19T20:11:49.311Z,45.51
2022-10-19T20:14:15.559Z,45.34
2022-10-19T20:16:41.793Z,45.37
2022-10-19T20:19:12.800Z,45.49
2022-10-19T20:21:39.798Z,45.59
2022-10-19T20:24:06.279Z,45.65
2022-10-19T20:26:32.779Z,45.64
2022-10-19T20:29:00.781Z,45.38
2022-10-19T20:33:58.361Z,45.61
2022-10-19T20:36:25.409Z,45.42
2022-10-19T20:38:56.091Z,45.54
2022-10-19T20:41:23.542Z,45.51
2022-10-19T20:43:50.220Z,45.71
2022-10-19T20:46:17.939Z,45.58
2022-10-19T20:48:44.950Z,45.71
2022-10-19T20:51:12.916Z,46.08
2022-10-19T20:53:39.302Z,45.78
2022-10-19T20:56:09.385Z,45.88
2022-10-19T20:58:38.744Z,45.79
2022-10-19T21:01:11.866Z,46.04
2022-10-19T21:03:38.726Z,45.92
2022-10-19T21:06:06.024Z,45.92
2022-10-19T21:08:33.210Z,45.50
2022-10-19T21:10:59.531Z,45.85
2022-10-19T21:13:26.060Z,46.03
2022-10-19T21:15:52.409Z,45.88
2022-10-19T21:18:18.925Z,46.14
2022-10-19T21:20:45.214Z,45.96
2022-10-19T21:23:12.258Z,46.24
2022-10-19T21:25:38.500Z,46.14
2022-10-19T21:28:04.852Z,46.13
2022-10-19T21:30:31.116Z,45.77
2022-10-19T21:32:57.356Z,46.01
2022-10-19T21:35:23.597Z,46.07
2022-10-19T21:37:49.871Z,46.13
2022-10-19T21:40:16.234Z,46.32
2022-10-19T21:42:42.490Z,46.17
2022-10-19T21:45:29.302Z,45.79
2022-10-19T21:47:55.469Z,46.00
2022-10-19T21:50:21.735Z,46.09
2022-10-19T21:52:48.012Z,46.26
2022-10-19T21:55:14.297Z,46.21
2022-10-19T21:57:40.713Z,46.41
2022-10-19T22:00:07.124Z,46.21
2022-10-19T22:02:33.538Z,46.29
2022-10-19T22:04:59.895Z,46.14
2022-10-19T22:07:26.310Z,46.48
2022-10-19T22:09:52.964Z,46.12
2022-10-19T22:12:19.397Z,46.25
2022-10-19T22:14:45.819Z,46.53
2022-10-19T22:17:12.088Z,46.43
2022-10-19T22:19:38.297Z,46.66
2022-10-19T22:22:04.685Z,46.77
2022-10-19T22:24:31.117Z,46.47
2022-10-19T22:26:57.403Z,46.81
2022-10-19T22:29:23.834Z,46.31
2022-10-19T22:31:50.122Z,46.22
2022-10-19T22:34:17.474Z,46.37
2022-10-19T22:36:44.324Z,46.84
2022-10-19T22:39:10.808Z,46.75
2022-10-19T22:41:37.099Z,46.46
2022-10-19T22:44:03.378Z,46.32
2022-10-19T22:46:29.910Z,46.31
2022-10-19T22:48:56.192Z,46.73
2022-10-19T22:51:22.582Z,46.50
2022-10-19T22:53:48.819Z,46.66
2022-10-19T22:56:15.083Z,46.68
2022-10-19T22:58:41.362Z,46.71
2022-10-19T23:01:11.657Z,46.47
2022-10-19T23:03:41.209Z,46.74
2022-10-19T23:06:08.533Z,46.70
2022-10-19T23:08:35.062Z,46.31
2022-10-19T23:11:01.331Z,46.52
2022-10-19T23:13:27.941Z,46.43
2022-10-19T23:15:54.378Z,46.34
2022-10-19T23:18:20.863Z,46.82
2022-10-19T23:20:54.033Z,46.79
2022-10-19T23:23:20.344Z,46.74
2022-10-19T23:25:56.340Z,46.28
2022-10-19T23:28:22.602Z,47.01
2022-10-19T23:30:50.190Z,46.49
2022-10-19T23:33:16.770Z,46.85
2022-10-19T23:35:43.178Z,46.38
2022-10-19T23:38:09.400Z,46.69
2022-10-19T23:40:36.988Z,46.33
2022-10-19T23:43:03.418Z,46.46
2022-10-19T23:45:29.820Z,46.42
2022-10-19T23:47:56.071Z,46.83
2022-10-19T23:50:22.327Z,46.89
2022-10-19T23:52:48.638Z,47.08
2022-10-19T23:55:14.900Z,46.98
2022-10-19T23:57:41.119Z,46.91
